Time;durP1;ratioP1;P1;durP2;ratioP2;P2;SDS_P1;SDS_P2;PMS_P1;PMS_P2;Temp;Humidity;BMP_temperature;BMP_pressure;BME280_temperature;BME280_humidity;BME280_pressure;Samples;Min_cycle;Max_cycle;Signal;HPM_P1;HPM_P2
2021/04/01 00:00:14;;;;;;;;;;;20.70;50.00;;;;;;5015860;28;19948;-66
2021/04/01 00:02:40;;;;;;;;;;;20.70;50.00;;;;;;5014188;28;19920;-66
2021/04/01 00:05:06;;;;;;;;;;;20.70;50.00;;;;;;5014681;28;19921;-66
2021/04/01 00:07:32;;;;;;;;;;;20.70;50.00;;;;;;5014362;28;19913;-66
2021/04/01 00:09:57;;;;;;;;;;;20.70;50.00;;;;;;5021936;28;19920;-66
2021/04/01 00:12:23;;;;;;;;;;;20.70;50.00;;;;;;5015623;28;20383;-66
2021/04/01 00:14:49;;;;;;;;;;;20.70;50.00;;;;;;5015110;28;19917;-65
2021/04/01 00:17:14;;;;;;;;;;;20.60;49.90;;;;;;5012850;28;19921;-66
2021/04/01 00:19:40;;;;;;;;;;;20.70;49.90;;;;;;5012331;28;19929;-65
2021/04/01 00:22:05;;;;;;;;;;;20.70;50.00;;;;;;5018316;28;20291;-65
2021/04/01 00:24:31;;;;;;;;;;;20.70;49.90;;;;;;5012021;28;19964;-65
2021/04/01 00:26:56;;;;;;;;;;;20.70;50.50;;;;;;5010784;28;19936;-66
2021/04/01 00:29:22;;;;;;;;;;;20.70;49.90;;;;;;5012494;28;19917;-65
2021/04/01 00:31:47;;;;;;;;;;;20.70;49.90;;;;;;5014268;28;19913;-65
2021/04/01 00:34:13;;;;;;;;;;;20.70;49.90;;;;;;5013919;28;19956;-66
2021/04/01 00:36:38;;;;;;;;;;;20.70;49.90;;;;;;5014656;28;19963;-66
2021/04/01 00:39:04;;;;;;;;;;;20.70;49.90;;;;;;5014023;28;20597;-66
2021/04/01 00:41:29;;;;;;;;;;;20.70;49.90;;;;;;5015669;28;19992;-66
2021/04/01 00:43:55;;;;;;;;;;;20.70;49.80;;;;;;5011326;28;19968;-66
2021/04/01 00:46:20;;;;;;;;;;;20.70;49.80;;;;;;5013066;28;19913;-66
2021/04/01 00:48:46;;;;;;;;;;;20.70;49.80;;;;;;5013128;28;20411;-66
2021/04/01 00:51:11;;;;;;;;;;;20.70;49.80;;;;;;5013419;28;19972;-66
2021/04/01 00:53:36;;;;;;;;;;;20.70;49.80;;;;;;5014824;28;19925;-66
2021/04/01 00:56:02;;;;;;;;;;;20.70;49.80;;;;;;5024503;28;19913;-66
2021/04/01 00:58:28;;;;;;;;;;;20.70;49.80;;;;;;5018863;28;19913;-65
2021/04/01 01:03:49;;;;;;;;;;;20.70;49.80;;;;;;4961619;28;20302;-65
2021/04/01 01:06:14;;;;;;;;;;;20.70;49.80;;;;;;5012870;28;19965;-65
2021/04/01 01:08:40;;;;;;;;;;;20.70;49.80;;;;;;5012464;28;19913;-66
2021/04/01 01:11:05;;;;;;;;;;;20.70;49.70;;;;;;5016653;28;19913;-66
2021/04/01 01:13:31;;;;;;;;;;;20.70;49.70;;;;;;5017339;28;19913;-66
2021/04/01 01:15:56;;;;;;;;;;;20.70;49.70;;;;;;5017883;28;20615;-66
2021/04/01 01:18:22;;;;;;;;;;;20.70;49.70;;;;;;5021865;28;19913;-66
2021/04/01 01:20:47;;;;;;;;;;;20.70;49.70;;;;;;5023406;28;19921;-66
2021/04/01 01:23:13;;;;;;;;;;;20.70;49.70;;;;;;5022426;28;19913;-65
2021/04/01 01:25:38;;;;;;;;;;;20.70;49.70;;;;;;5015775;28;19955;-65
2021/04/01 01:28:04;;;;;;;;;;;20.70;49.70;;;;;;5021813;28;19995;-66
2021/04/01 01:30:29;;;;;;;;;;;20.60;49.70;;;;;;5020131;28;20446;-66
2021/04/01 01:32:58;;;;;;;;;;;20.70;49.70;;;;;;5017197;28;20264;-66
2021/04/01 01:35:24;;;;;;;;;;;20.70;49.70;;;;;;5012076;28;20627;-66
2021/04/01 01:37:53;;;;;;;;;;;20.70;49.60;;;;;;5019048;28;20209;-66
2021/04/01 01:40:19;;;;;;;;;;;20.60;49.60;;;;;;5013930;28;19919;-66
2021/04/01 01:42:45;;;;;;;;;;;20.60;49.60;;;;;;5015512;28;20380;-66
2021/04/01 01:45:11;;;;;;;;;;;20.60;49.60;;;;;;5022410;28;19956;-66
2021/04/01 01:47:36;;;;;;;;;;;20.60;49.60;;;;;;5015481;28;19920;-65
2021/04/01 01:50:02;;;;;;;;;;;20.60;49.60;;;;;;5015471;28;20005;-65
2021/04/01 01:52:28;;;;;;;;;;;20.60;49.50;;;;;;5017214;28;19916;-64
2021/04/01 01:54:53;;;;;;;;;;;20.60;49.50;;;;;;5016837;28;20451;-66
2021/04/01 01:57:19;;;;;;;;;;;20.70;49.60;;;;;;5023047;28;19913;-65
2021/04/01 01:59:44;;;;;;;;;;;20.60;49.50;;;;;;5015361;28;19924;-66
2021/04/01 02:02:10;;;;;;;;;;;20.60;49.50;;;;;;5020499;28;19963;-66
2021/04/01 02:04:35;;;;;;;;;;;20.60;49.50;;;;;;5018877;28;20499;-66
2021/04/01 02:07:01;;;;;;;;;;;20.60;50.20;;;;;;5001675;28;19932;-66
2021/04/01 02:09:26;;;;;;;;;;;20.60;49.50;;;;;;4995209;28;19920;-66
2021/04/01 02:11:51;;;;;;;;;;;20.60;49.50;;;;;;5009700;28;20331;-65
2021/04/01 02:14:17;;;;;;;;;;;20.60;49.50;;;;;;5011887;28;21609;-66
2021/04/01 02:16:42;;;;;;;;;;;20.60;49.50;;;;;;5017879;28;19967;-65
2021/04/01 02:19:08;;;;;;;;;;;20.60;49.50;;;;;;5016263;28;19914;-66
2021/04/01 02:21:33;;;;;;;;;;;20.60;49.50;;;;;;5015179;28;19917;-65
2021/04/01 02:23:59;;;;;;;;;;;20.60;49.40;;;;;;5014736;28;19924;-65
2021/04/01 02:26:24;;;;;;;;;;;20.60;49.40;;;;;;5014821;28;19927;-65
2021/04/01 02:28:50;;;;;;;;;;;20.60;49.40;;;;;;4988527;28;19913;-65
2021/04/01 02:31:20;;;;;;;;;;;20.60;49.40;;;;;;4990730;28;20351;-66
2021/04/01 02:33:45;;;;;;;;;;;20.60;49.30;;;;;;4996316;28;21533;-65
2021/04/01 02:36:11;;;;;;;;;;;20.60;49.50;;;;;;4998296;28;20294;-65
2021/04/01 02:38:36;;;;;;;;;;;20.60;49.40;;;;;;4996723;28;19913;-66
2021/04/01 02:41:02;;;;;;;;;;;20.60;49.40;;;;;;5008158;28;19917;-66
2021/04/01 02:43:32;;;;;;;;;;;20.60;49.40;;;;;;5017305;28;19980;-65
2021/04/01 02:45:58;;;;;;;;;;;20.60;49.30;;;;;;4994022;28;19976;-67
2021/04/01 02:48:23;;;;;;;;;;;20.60;49.30;;;;;;4994555;28;19918;-66
2021/04/01 02:50:49;;;;;;;;;;;20.60;49.30;;;;;;5002162;28;19917;-66
2021/04/01 02:53:15;;;;;;;;;;;20.60;49.30;;;;;;5010884;28;19913;-66
2021/04/01 02:55:40;;;;;;;;;;;20.60;49.30;;;;;;5015077;28;19924;-66
2021/04/01 02:58:06;;;;;;;;;;;20.60;49.30;;;;;;5012614;28;19940;-66
2021/04/01 03:00:33;;;;;;;;;;;20.60;49.30;;;;;;5013809;28;19953;-66
2021/04/01 03:03:04;;;;;;;;;;;20.60;49.30;;;;;;5021031;28;19921;-67
2021/04/01 03:05:29;;;;;;;;;;;20.60;49.30;;;;;;5013881;28;19956;-65
2021/04/01 03:07:55;;;;;;;;;;;20.50;49.30;;;;;;5014716;28;19917;-65
2021/04/01 03:10:20;;;;;;;;;;;20.50;49.30;;;;;;5014332;28;19913;-66
2021/04/01 03:12:45;;;;;;;;;;;20.60;49.30;;;;;;5013779;28;20373;-66
2021/04/01 03:15:11;;;;;;;;;;;20.60;49.20;;;;;;5015823;28;19944;-65
2021/04/01 03:17:37;;;;;;;;;;;20.60;49.20;;;;;;5017067;28;19913;-65
2021/04/01 03:20:03;;;;;;;;;;;20.60;49.20;;;;;;5012843;28;20453;-65
2021/04/01 03:22:29;;;;;;;;;;;20.60;49.20;;;;;;5021415;28;20367;-64
2021/04/01 03:24:54;;;;;;;;;;;20.60;49.10;;;;;;5017649;28;19925;-65
2021/04/01 03:27:20;;;;;;;;;;;20.60;49.10;;;;;;5019557;28;19913;-65
2021/04/01 03:30:03;;;;;;;;;;;20.60;49.10;;;;;;5018563;28;19991;-65
2021/04/01 03:32:29;;;;;;;;;;;20.50;49.10;;;;;;5002631;28;19917;-66
2021/04/01 03:34:54;;;;;;;;;;;20.60;49.10;;;;;;5024666;28;19921;-66
2021/04/01 03:37:20;;;;;;;;;;;20.60;49.10;;;;;;5020226;28;19913;-65
2021/04/01 03:39:45;;;;;;;;;;;20.60;49.00;;;;;;5013753;28;19920;-65
2021/04/01 03:42:11;;;;;;;;;;;20.60;49.10;;;;;;5015520;28;19917;-64
2021/04/01 03:44:36;;;;;;;;;;;20.60;49.00;;;;;;5013534;28;19935;-64
2021/04/01 03:47:02;;;;;;;;;;;20.60;49.00;;;;;;5023151;28;19923;-64
2021/04/01 03:49:27;;;;;;;;;;;20.60;49.00;;;;;;5016513;28;19914;-65
2021/04/01 03:51:52;;;;;;;;;;;20.50;49.00;;;;;;5013296;28;19968;-66
2021/04/01 03:54:18;;;;;;;;;;;20.60;49.00;;;;;;5012969;28;20411;-65
2021/04/01 03:56:48;;;;;;;;;;;20.60;49.00;;;;;;5013505;28;19913;-65
2021/04/01 03:59:14;;;;;;;;;;;20.50;48.90;;;;;;5015865;28;20043;-66
2021/04/01 04:04:19;;;;;;;;;;;20.50;48.90;;;;;;5012971;28;20596;-65
2021/04/01 04:12:30;;;;;;;;;;;20.60;49.00;;;;;;5018011;28;19919;-64
2021/04/01 04:15:08;;;;;;;;;;;20.50;48.90;;;;;;4992044;28;20245;-65
2021/04/01 04:17:33;;;;;;;;;;;20.50;48.90;;;;;;4980481;28;20273;-64
2021/04/01 04:19:59;;;;;;;;;;;20.50;48.90;;;;;;4992278;28;19920;-65
2021/04/01 04:22:25;;;;;;;;;;;20.50;48.90;;;;;;4993025;28;20335;-66
2021/04/01 04:24:51;;;;;;;;;;;20.60;48.90;;;;;;5011958;28;20371;-65
2021/04/01 04:29:59;;;;;;;;;;;20.50;48.90;;;;;;4994135;28;20523;-63
2021/04/01 04:32:25;;;;;;;;;;;20.50;49.00;;;;;;5005622;28;19917;-65
2021/04/01 04:34:51;;;;;;;;;;;20.50;49.00;;;;;;5013020;28;19917;-66
2021/04/01 04:37:16;;;;;;;;;;;20.50;49.00;;;;;;5019886;28;20039;-66
2021/04/01 04:39:41;;;;;;;;;;;20.50;49.00;;;;;;5016693;28;19920;-66
2021/04/01 04:42:07;;;;;;;;;;;20.50;49.00;;;;;;5014998;28;20379;-64
2021/04/01 04:44:33;;;;;;;;;;;20.50;49.00;;;;;;5015219;28;19913;-65
2021/04/01 04:46:58;;;;;;;;;;;20.50;49.10;;;;;;5015553;28;19917;-66
2021/04/01 04:49:24;;;;;;;;;;;20.50;49.10;;;;;;5013376;28;19917;-66
2021/04/01 04:51:49;;;;;;;;;;;20.50;49.10;;;;;;5014762;28;19943;-66
2021/04/01 04:54:15;;;;;;;;;;;20.50;49.10;;;;;;5016604;28;19948;-67
2021/04/01 04:56:40;;;;;;;;;;;20.50;49.00;;;;;;5018641;28;19920;-67
2021/04/01 04:59:14;;;;;;;;;;;20.50;49.00;;;;;;5016414;28;20618;-68
2021/04/01 05:07:01;;;;;;;;;;;20.50;49.10;;;;;;5010911;28;20379;-68
2021/04/01 05:09:26;;;;;;;;;;;20.50;49.10;;;;;;5016476;28;19941;-66
2021/04/01 05:11:51;;;;;;;;;;;20.50;49.20;;;;;;5016033;28;19913;-65
2021/04/01 05:14:17;;;;;;;;;;;20.50;49.30;;;;;;4995404;28;19917;-68
2021/04/01 05:16:43;;;;;;;;;;;20.50;49.30;;;;;;5000239;28;19933;-65
2021/04/01 05:19:10;;;;;;;;;;;20.50;49.50;;;;;;5011860;28;19951;-67
2021/04/01 05:24:10;;;;;;;;;;;20.50;49.50;;;;;;5019113;28;20485;-66
2021/04/01 05:29:05;;;;;;;;;;;20.50;49.70;;;;;;5017117;28;19963;-66
2021/04/01 05:31:35;;;;;;;;;;;20.50;49.90;;;;;;5019415;28;19923;-68
2021/04/01 05:34:00;;;;;;;;;;;20.50;49.90;;;;;;5012828;28;19917;-67
2021/04/01 05:36:30;;;;;;;;;;;20.50;50.10;;;;;;5019828;28;19913;-67
2021/04/01 05:38:57;;;;;;;;;;;20.50;50.20;;;;;;5016689;28;20088;-65
2021/04/01 05:41:25;;;;;;;;;;;20.50;50.50;;;;;;5017223;28;19913;-67
2021/04/01 05:43:58;;;;;;;;;;;20.50;50.50;;;;;;5007720;28;19913;-67
2021/04/01 05:46:28;;;;;;;;;;;20.50;50.40;;;;;;5001799;28;19944;-65
2021/04/01 05:54:43;;;;;;;;;;;20.50;50.70;;;;;;5004607;28;20043;-66
2021/04/01 05:59:59;;;;;;;;;;;20.50;51.00;;;;;;5009420;28;19920;-64
2021/04/01 06:02:34;;;;;;;;;;;20.50;50.90;;;;;;4998063;28;19917;-66
2021/04/01 06:05:08;;;;;;;;;;;20.50;51.00;;;;;;4984668;28;19996;-68
2021/04/01 06:07:37;;;;;;;;;;;20.50;50.80;;;;;;5011431;28;19913;-68
2021/04/01 06:10:02;;;;;;;;;;;20.50;50.60;;;;;;5007639;28;19913;-66
2021/04/01 06:12:31;;;;;;;;;;;20.50;50.60;;;;;;5022166;28;19948;-66
2021/04/01 06:15:02;;;;;;;;;;;20.50;50.40;;;;;;4994516;28;19917;-66
2021/04/01 06:17:28;;;;;;;;;;;20.50;50.40;;;;;;4995252;28;19914;-66
2021/04/01 06:19:55;;;;;;;;;;;20.50;50.20;;;;;;4995251;28;19914;-67
2021/04/01 06:22:21;;;;;;;;;;;20.50;50.20;;;;;;5012818;28;19917;-66
2021/04/01 06:24:46;;;;;;;;;;;20.50;50.10;;;;;;5017039;28;20587;-65
2021/04/01 06:27:19;;;;;;;;;;;20.50;50.00;;;;;;5013716;28;19970;-64
2021/04/01 06:30:12;;;;;;;;;;;20.50;50.00;;;;;;5022217;28;19917;-66
2021/04/01 06:32:31;;;;;;;;;;;20.50;50.00;;;;;;4996712;28;19918;-64
2021/04/01 06:35:07;;;;;;;;;;;20.50;50.00;;;;;;5004439;28;19982;-65
2021/04/01 06:40:01;;;;;;;;;;;20.50;49.90;;;;;;5020992;28;20274;-66
2021/04/01 06:42:33;;;;;;;;;;;20.50;50.40;;;;;;5012534;28;19921;-66
2021/04/01 06:45:02;;;;;;;;;;;20.50;50.80;;;;;;4993701;28;19917;-67
2021/04/01 06:47:28;;;;;;;;;;;20.50;51.10;;;;;;5000577;28;19929;-67
2021/04/01 06:52:36;;;;;;;;;;;20.50;51.20;;;;;;5014941;28;19996;-66
2021/04/01 06:55:12;;;;;;;;;;;20.50;51.20;;;;;;5021141;28;20396;-65
2021/04/01 06:57:50;;;;;;;;;;;20.50;51.20;;;;;;5022799;28;19913;-67
2021/04/01 07:02:46;;;;;;;;;;;20.50;51.40;;;;;;5019576;28;19921;-67
2021/04/01 07:05:24;;;;;;;;;;;20.50;51.50;;;;;;5012655;28;19918;-67
2021/04/01 07:07:59;;;;;;;;;;;20.50;51.60;;;;;;5006791;28;19917;-66
2021/04/01 07:10:46;;;;;;;;;;;20.50;51.50;;;;;;5001695;28;19916;-67
2021/04/01 07:13:16;;;;;;;;;;;20.50;51.40;;;;;;4995322;28;19937;-64
2021/04/01 07:15:45;;;;;;;;;;;20.50;51.30;;;;;;4992611;28;19941;-67
2021/04/01 07:18:33;;;;;;;;;;;20.50;51.00;;;;;;4996092;28;20823;-67
2021/04/01 07:24:31;;;;;;;;;;;20.60;50.70;;;;;;5000494;28;19920;-66
2021/04/01 07:35:23;;;;;;;;;;;20.60;50.00;;;;;;5005342;28;20654;-67
2021/04/01 07:46:25;;;;;;;;;;;20.60;49.40;;;;;;5004431;28;20702;-67
2021/04/01 07:48:54;;;;;;;;;;;20.50;49.30;;;;;;5018253;28;20119;-67
2021/04/01 07:54:01;;;;;;;;;;;20.60;49.00;;;;;;5001262;28;19924;-67
2021/04/01 07:56:31;;;;;;;;;;;20.60;48.90;;;;;;4992263;28;20396;-68
2021/04/01 08:03:58;;;;;;;;;;;20.60;48.50;;;;;;5016779;28;19995;-67
2021/04/01 08:06:23;;;;;;;;;;;20.60;48.40;;;;;;4998585;28;19913;-67
2021/04/01 08:08:49;;;;;;;;;;;20.60;48.20;;;;;;5014285;28;19920;-67
2021/04/01 08:11:24;;;;;;;;;;;20.60;48.20;;;;;;5012689;28;19917;-68
2021/04/01 08:13:50;;;;;;;;;;;20.60;48.10;;;;;;5014076;28;19964;-66
2021/04/01 08:16:16;;;;;;;;;;;20.60;48.00;;;;;;4991271;28;19929;-66
2021/04/01 08:18:42;;;;;;;;;;;20.60;47.80;;;;;;5011709;28;19914;-67
2021/04/01 08:21:10;;;;;;;;;;;20.60;47.70;;;;;;5003487;28;19975;-67
2021/04/01 08:23:39;;;;;;;;;;;20.60;47.60;;;;;;5016244;28;19917;-66
2021/04/01 08:26:25;;;;;;;;;;;20.60;47.40;;;;;;5013938;28;20414;-67
2021/04/01 08:32:01;;;;;;;;;;;20.60;47.30;;;;;;5015309;28;19913;-66
2021/04/01 08:34:22;;;;;;;;;;;20.60;47.10;;;;;;5012775;28;19924;-67
2021/04/01 08:36:50;;;;;;;;;;;20.60;47.10;;;;;;5021863;28;20436;-67
2021/04/01 08:39:16;;;;;;;;;;;20.60;47.00;;;;;;5016507;28;19955;-68
2021/04/01 08:41:41;;;;;;;;;;;20.60;46.90;;;;;;5020861;28;20411;-67
2021/04/01 08:44:25;;;;;;;;;;;20.60;46.80;;;;;;5013334;28;19918;-67
2021/04/01 08:47:01;;;;;;;;;;;20.60;46.80;;;;;;5013923;28;20004;-66
2021/04/01 08:49:45;;;;;;;;;;;20.60;46.80;;;;;;4999656;28;20326;-67
2021/04/01 08:52:29;;;;;;;;;;;20.60;46.80;;;;;;5002649;28;20386;-67
2021/04/01 08:54:58;;;;;;;;;;;20.50;46.70;;;;;;5004117;28;20004;-67
2021/04/01 08:57:26;;;;;;;;;;;20.50;46.70;;;;;;5009574;28;19913;-67
2021/04/01 08:59:57;;;;;;;;;;;20.60;46.70;;;;;;5001443;28;20000;-67
2021/04/01 09:02:23;;;;;;;;;;;20.60;46.60;;;;;;5001273;28;19917;-67
2021/04/01 09:04:49;;;;;;;;;;;20.60;46.70;;;;;;5001371;28;20012;-66
2021/04/01 09:07:25;;;;;;;;;;;20.60;46.60;;;;;;5004728;28;20292;-67
2021/04/01 09:09:52;;;;;;;;;;;20.60;46.60;;;;;;5015023;28;20423;-67
2021/04/01 09:12:30;;;;;;;;;;;20.60;46.60;;;;;;5016716;28;19948;-67
2021/04/01 09:14:56;;;;;;;;;;;20.60;46.60;;;;;;4982937;28;19926;-68
2021/04/01 09:17:27;;;;;;;;;;;20.60;46.70;;;;;;5007121;28;20038;-67
2021/04/01 09:19:52;;;;;;;;;;;20.60;46.80;;;;;;5010365;28;20312;-66
2021/04/01 09:22:21;;;;;;;;;;;20.50;46.80;;;;;;5019521;28;19920;-67
2021/04/01 09:24:56;;;;;;;;;;;20.60;46.90;;;;;;4991143;28;19925;-68
2021/04/01 09:27:22;;;;;;;;;;;20.50;47.00;;;;;;4991826;28;19917;-68
2021/04/01 09:29:47;;;;;;;;;;;20.50;47.00;;;;;;5004927;28;19929;-66
2021/04/01 09:32:13;;;;;;;;;;;20.50;47.10;;;;;;5010743;28;19913;-66
2021/04/01 09:34:39;;;;;;;;;;;20.50;47.90;;;;;;5015004;28;19921;-67
2021/04/01 09:37:10;;;;;;;;;;;20.50;47.30;;;;;;5006350;28;19940;-67
2021/04/01 09:39:36;;;;;;;;;;;20.50;47.40;;;;;;5015437;28;19913;-67
2021/04/01 09:42:05;;;;;;;;;;;20.50;47.40;;;;;;5013674;28;19914;-67
2021/04/01 09:44:31;;;;;;;;;;;20.50;47.60;;;;;;5015085;28;20372;-67
2021/04/01 09:46:58;;;;;;;;;;;20.50;47.60;;;;;;5020281;28;19913;-66
2021/04/01 09:49:41;;;;;;;;;;;20.50;47.60;;;;;;5015217;28;19920;-67
2021/04/01 09:52:06;;;;;;;;;;;20.50;47.80;;;;;;5010184;28;19969;-67
2021/04/01 09:54:34;;;;;;;;;;;20.50;48.20;;;;;;4994145;28;19975;-65
2021/04/01 09:56:59;;;;;;;;;;;20.50;48.50;;;;;;5002987;28;19928;-65
2021/04/01 09:59:46;;;;;;;;;;;20.50;48.30;;;;;;5014015;28;19917;-66
2021/04/01 10:02:14;;;;;;;;;;;20.50;48.20;;;;;;4992450;28;19917;-66
2021/04/01 10:04:40;;;;;;;;;;;20.50;48.20;;;;;;4975163;28;19918;-66
2021/04/01 10:07:11;;;;;;;;;;;20.50;48.50;;;;;;4995817;28;20023;-67
2021/04/01 10:09:44;;;;;;;;;;;20.50;48.60;;;;;;4981352;28;19913;-66
2021/04/01 10:12:10;;;;;;;;;;;20.50;48.60;;;;;;4993233;28;20377;-66
2021/04/01 10:14:36;;;;;;;;;;;20.50;48.60;;;;;;5003349;28;19924;-66
2021/04/01 10:17:01;;;;;;;;;;;20.50;48.60;;;;;;5021188;28;20372;-66
2021/04/01 10:19:28;;;;;;;;;;;20.50;48.60;;;;;;5015036;28;19914;-64
2021/04/01 10:21:53;;;;;;;;;;;20.50;48.60;;;;;;5022828;28;19917;-66
2021/04/01 10:24:38;;;;;;;;;;;20.50;48.60;;;;;;5014683;28;19913;-66
2021/04/01 10:27:11;;;;;;;;;;;20.50;48.70;;;;;;5004026;28;20617;-67
2021/04/01 10:29:43;;;;;;;;;;;20.50;48.70;;;;;;5018181;28;19976;-67
2021/04/01 10:32:09;;;;;;;;;;;20.50;48.70;;;;;;5027779;28;20649;-67
2021/04/01 10:37:50;;;;;;;;;;;20.50;48.70;;;;;;5001997;28;19922;-58
2021/04/01 10:40:16;;;;;;;;;;;20.50;48.60;;;;;;5002941;28;19991;-60
2021/04/01 10:42:44;;;;;;;;;;;20.50;48.80;;;;;;5002981;28;19963;-60
2021/04/01 10:45:15;;;;;;;;;;;20.50;49.00;;;;;;5003621;28;19913;-60
2021/04/01 10:47:56;;;;;;;;;;;20.40;49.10;;;;;;5003883;28;19917;-60
2021/04/01 10:50:21;;;;;;;;;;;20.40;49.10;;;;;;5003047;28;19921;-58
2021/04/01 10:52:47;;;;;;;;;;;20.50;48.90;;;;;;5001298;28;20297;-59
2021/04/01 10:55:12;;;;;;;;;;;20.50;49.50;;;;;;4998585;28;19917;-66
2021/04/01 10:57:38;;;;;;;;;;;20.60;49.60;;;;;;4995706;28;19968;-60
2021/04/01 11:00:21;;;;;;;;;;;20.60;50.00;;;;;;4988094;28;19913;-61
2021/04/01 11:02:50;;;;;;;;;;;20.60;49.30;;;;;;4999913;28;19964;-60
2021/04/01 11:05:16;;;;;;;;;;;20.60;48.90;;;;;;4994981;28;19913;-62
2021/04/01 11:07:49;;;;;;;;;;;20.50;49.00;;;;;;5006458;28;19913;-60
2021/04/01 11:10:18;;;;;;;;;;;20.50;49.10;;;;;;5020337;28;19957;-62
2021/04/01 11:12:45;;;;;;;;;;;20.50;49.10;;;;;;5005300;28;20383;-61
2021/04/01 11:15:11;;;;;;;;;;;20.50;49.10;;;;;;5019070;28;20004;-60
2021/04/01 11:17:37;;;;;;;;;;;20.40;49.20;;;;;;4995616;28;20430;-61
2021/04/01 11:20:03;;;;;;;;;;;20.40;49.30;;;;;;4996240;28;19913;-62
2021/04/01 11:22:28;;;;;;;;;;;20.40;49.50;;;;;;4984007;28;19924;-60
2021/04/01 11:24:54;;;;;;;;;;;20.50;50.30;;;;;;4983952;28;19943;-60
2021/04/01 11:27:20;;;;;;;;;;;20.50;49.80;;;;;;5006084;28;19913;-59
2021/04/01 11:29:54;;;;;;;;;;;20.50;49.80;;;;;;5010846;28;20003;-57
2021/04/01 11:32:21;;;;;;;;;;;20.50;49.80;;;;;;5010960;28;20406;-60
2021/04/01 11:34:48;;;;;;;;;;;20.50;49.80;;;;;;5015895;28;19927;-60
2021/04/01 11:37:17;;;;;;;;;;;20.40;49.70;;;;;;5013296;28;19925;-58
2021/04/01 11:39:43;;;;;;;;;;;20.40;49.70;;;;;;5014059;28;20658;-60
2021/04/01 11:42:14;;;;;;;;;;;20.40;49.80;;;;;;5006744;28;19945;-58
2021/04/01 11:44:40;;;;;;;;;;;20.40;49.90;;;;;;5011644;28;20008;-60
2021/04/01 11:47:12;;;;;;;;;;;20.40;49.70;;;;;;5015652;28;20004;-59
2021/04/01 11:49:38;;;;;;;;;;;20.50;49.40;;;;;;5014512;28;19914;-60
2021/04/01 11:52:03;;;;;;;;;;;20.50;49.00;;;;;;5017179;28;19927;-61
2021/04/01 11:54:29;;;;;;;;;;;20.50;49.00;;;;;;5014214;28;20386;-58
2021/04/01 11:56:54;;;;;;;;;;;20.50;49.10;;;;;;5011119;28;19925;-59
2021/04/01 11:59:27;;;;;;;;;;;20.50;49.20;;;;;;5012197;28;19920;-60
2021/04/01 12:01:55;;;;;;;;;;;20.50;49.20;;;;;;5012973;28;19925;-60
2021/04/01 12:04:23;;;;;;;;;;;20.50;49.10;;;;;;5013654;28;19999;-58
2021/04/01 12:06:49;;;;;;;;;;;20.50;49.10;;;;;;5006035;28;20367;-59
2021/04/01 12:09:15;;;;;;;;;;;20.50;49.30;;;;;;5012876;28;19913;-59
2021/04/01 12:11:44;;;;;;;;;;;20.40;49.10;;;;;;5012772;28;20366;-60
2021/04/01 12:14:09;;;;;;;;;;;20.40;49.10;;;;;;5011972;28;19917;-59
2021/04/01 12:16:35;;;;;;;;;;;20.50;49.20;;;;;;5011619;28;19913;-59
2021/04/01 12:19:00;;;;;;;;;;;20.40;49.10;;;;;;5009163;28;19940;-60
2021/04/01 12:21:26;;;;;;;;;;;20.50;49.10;;;;;;5013774;28;19927;-60
2021/04/01 12:23:52;;;;;;;;;;;20.40;49.30;;;;;;5001036;28;19922;-59
2021/04/01 12:26:17;;;;;;;;;;;20.50;49.50;;;;;;4994302;28;20371;-58
2021/04/01 12:28:47;;;;;;;;;;;20.40;49.70;;;;;;4997620;28;19914;-61
2021/04/01 12:31:15;;;;;;;;;;;20.40;49.90;;;;;;5000198;28;19936;-58
2021/04/01 12:33:47;;;;;;;;;;;20.40;49.90;;;;;;5017878;28;19917;-58
2021/04/01 12:36:12;;;;;;;;;;;20.40;49.80;;;;;;5011724;28;20282;-60
2021/04/01 12:38:39;;;;;;;;;;;20.40;49.90;;;;;;5011001;28;19921;-58
2021/04/01 12:41:05;;;;;;;;;;;20.50;50.30;;;;;;5011577;28;19916;-59
2021/04/01 12:43:30;;;;;;;;;;;20.50;50.10;;;;;;5020063;28;20394;-59
2021/04/01 12:45:56;;;;;;;;;;;20.40;50.00;;;;;;5014076;28;19937;-58
2021/04/01 12:48:21;;;;;;;;;;;20.40;50.20;;;;;;5009708;28;20386;-59
2021/04/01 12:50:48;;;;;;;;;;;20.40;50.10;;;;;;5005543;28;20393;-60
2021/04/01 12:53:16;;;;;;;;;;;20.40;50.00;;;;;;5001737;28;19948;-61
2021/04/01 12:55:56;;;;;;;;;;;20.40;50.20;;;;;;5013053;28;19924;-60
2021/04/01 12:58:22;;;;;;;;;;;20.40;50.10;;;;;;5011473;28;20378;-59
2021/04/01 13:00:53;;;;;;;;;;;20.40;50.20;;;;;;5019324;28;19957;-58
2021/04/01 13:03:18;;;;;;;;;;;20.40;50.10;;;;;;5010982;28;19920;-57
2021/04/01 13:05:48;;;;;;;;;;;20.40;50.50;;;;;;5019405;28;19917;-58
2021/04/01 13:10:58;;;;;;;;;;;20.40;50.70;;;;;;5011578;28;20051;-59
2021/04/01 13:13:23;;;;;;;;;;;20.40;50.60;;;;;;5011237;28;19921;-60
2021/04/01 13:15:49;;;;;;;;;;;20.40;50.50;;;;;;5015663;28;19935;-61
2021/04/01 13:18:14;;;;;;;;;;;20.50;50.40;;;;;;5018149;28;19963;-59
2021/04/01 13:20:40;;;;;;;;;;;20.40;50.30;;;;;;5017254;28;20563;-59
2021/04/01 13:25:31;;;;;;;;;;;20.50;50.00;;;;;;5019329;28;19925;-56
2021/04/01 13:28:01;;;;;;;;;;;20.50;49.90;;;;;;5015379;28;19919;-59
2021/04/01 13:30:28;;;;;;;;;;;20.50;49.70;;;;;;5010353;28;19959;-59
2021/04/01 13:38:15;;;;;;;;;;;20.50;49.40;;;;;;4995746;28;19918;-60
2021/04/01 13:40:43;;;;;;;;;;;20.50;49.30;;;;;;5000087;28;20387;-59
2021/04/01 13:43:10;;;;;;;;;;;20.50;49.10;;;;;;4986020;28;19976;-59
2021/04/01 13:45:37;;;;;;;;;;;20.50;49.10;;;;;;4993863;28;20295;-59
2021/04/01 13:48:06;;;;;;;;;;;20.50;49.00;;;;;;4996848;28;19913;-60
2021/04/01 13:50:33;;;;;;;;;;;20.50;48.90;;;;;;4997472;28;19967;-59
2021/04/01 13:55:30;;;;;;;;;;;20.50;49.00;;;;;;5014302;28;19924;-59
2021/04/01 14:01:13;;;;;;;;;;;20.50;48.90;;;;;;4932224;28;20025;-60
2021/04/01 14:04:03;;;;;;;;;;;20.50;49.10;;;;;;4995135;28;19964;-61
2021/04/01 14:09:24;;;;;;;;;;;20.50;49.20;;;;;;4983631;28;19920;-60
2021/04/01 14:11:50;;;;;;;;;;;20.50;49.30;;;;;;5011834;28;19957;-59
2021/04/01 14:14:15;;;;;;;;;;;20.50;49.30;;;;;;5013397;28;20034;-60
2021/04/01 14:16:41;;;;;;;;;;;20.50;49.20;;;;;;5021584;28;19924;-59
2021/04/01 14:19:07;;;;;;;;;;;20.50;49.30;;;;;;4993830;28;20385;-60
2021/04/01 14:21:33;;;;;;;;;;;20.50;49.20;;;;;;4992871;28;19948;-60
2021/04/01 14:23:59;;;;;;;;;;;20.50;49.20;;;;;;4992837;28;20007;-60
2021/04/01 14:28:52;;;;;;;;;;;20.50;49.40;;;;;;4994841;28;19924;-58
2021/04/01 14:31:18;;;;;;;;;;;20.50;49.20;;;;;;5002424;28;20041;-60
2021/04/01 14:33:43;;;;;;;;;;;20.60;49.10;;;;;;4996232;28;19922;-58
2021/04/01 14:36:10;;;;;;;;;;;20.50;48.90;;;;;;4996064;28;19928;-58
2021/04/01 14:38:36;;;;;;;;;;;20.60;48.70;;;;;;5013815;28;19913;-60
2021/04/01 14:41:07;;;;;;;;;;;20.60;48.70;;;;;;5019752;28;20520;-59
2021/04/01 14:43:37;;;;;;;;;;;20.60;48.70;;;;;;4996426;28;20020;-60
2021/04/01 14:46:03;;;;;;;;;;;20.60;48.50;;;;;;5014893;28;19927;-60
2021/04/01 14:48:28;;;;;;;;;;;20.60;48.40;;;;;;5015886;28;20004;-59
2021/04/01 14:50:54;;;;;;;;;;;20.60;48.20;;;;;;5014830;28;19921;-58
2021/04/01 14:53:28;;;;;;;;;;;20.60;48.20;;;;;;5016424;28;19980;-59
2021/04/01 14:55:54;;;;;;;;;;;20.60;48.20;;;;;;5011641;28;19927;-60
2021/04/01 14:58:20;;;;;;;;;;;20.60;48.80;;;;;;5010410;28;20305;-60
2021/04/01 15:00:46;;;;;;;;;;;20.60;49.40;;;;;;5013711;28;19916;-61
2021/04/01 15:03:11;;;;;;;;;;;20.50;49.60;;;;;;5020046;28;20089;-59
2021/04/01 15:05:37;;;;;;;;;;;20.50;49.90;;;;;;4995789;28;19921;-59
2021/04/01 15:08:02;;;;;;;;;;;20.50;50.20;;;;;;4993908;28;20386;-61
2021/04/01 15:10:28;;;;;;;;;;;20.50;50.20;;;;;;4992529;28;19917;-59
2021/04/01 15:12:53;;;;;;;;;;;20.50;50.00;;;;;;4993892;28;19996;-56
2021/04/01 15:15:19;;;;;;;;;;;20.50;50.30;;;;;;5003707;28;19921;-59
2021/04/01 15:17:45;;;;;;;;;;;20.50;50.20;;;;;;5012524;28;19917;-59
2021/04/01 15:20:10;;;;;;;;;;;20.50;50.20;;;;;;5013812;28;19940;-61
2021/04/01 15:22:36;;;;;;;;;;;20.50;50.30;;;;;;5017091;28;19914;-60
2021/04/01 15:25:01;;;;;;;;;;;20.50;50.40;;;;;;5011552;28;19963;-58
2021/04/01 15:27:27;;;;;;;;;;;20.50;50.30;;;;;;5013781;28;19925;-60
2021/04/01 15:29:53;;;;;;;;;;;20.50;50.50;;;;;;5011442;28;19921;-60
2021/04/01 15:32:21;;;;;;;;;;;20.50;50.60;;;;;;5012686;28;19924;-61
2021/04/01 15:34:47;;;;;;;;;;;20.50;50.40;;;;;;5020546;28;20033;-59
2021/04/01 15:37:12;;;;;;;;;;;20.50;50.60;;;;;;5014888;28;19933;-60
2021/04/01 15:39:39;;;;;;;;;;;20.60;50.40;;;;;;5015021;28;19953;-59
2021/04/01 15:42:05;;;;;;;;;;;20.60;50.60;;;;;;5011222;28;19988;-57
2021/04/01 15:44:30;;;;;;;;;;;20.50;50.70;;;;;;5011902;28;20029;-61
2021/04/01 15:46:55;;;;;;;;;;;20.60;50.80;;;;;;5012033;28;19964;-60
2021/04/01 15:49:21;;;;;;;;;;;20.60;50.50;;;;;;5012293;28;19913;-60
2021/04/01 15:51:46;;;;;;;;;;;20.60;50.90;;;;;;5012904;28;19913;-60
2021/04/01 15:54:12;;;;;;;;;;;20.60;50.60;;;;;;5015566;28;20398;-62